sensor_id;sensor_type;location;lat;lon;timestamp;P1;durP1;ratioP1;P2;durP2;ratioP2
2119;SDS011;1066;52.540;13.420;2022-08-03T00:01:19;4.50;;;3.97;;
2119;SDS011;1066;52.540;13.420;2022-08-03T00:03:44;4.63;;;4.20;;
2119;SDS011;1066;52.540;13.420;2022-08-03T00:06:09;4.43;;;4.10;;
2119;SDS011;1066;52.540;13.420;2022-08-03T00:08:35;4.60;;;3.80;;
2119;SDS011;1066;52.540;13.420;2022-08-03T00:11:00;6.40;;;4.90;;
2119;SDS011;1066;52.540;13.420;2022-08-03T00:13:26;5.10;;;3.97;;
2119;SDS011;1066;52.540;13.420;2022-08-03T00:15:52;5.63;;;4.00;;
2119;SDS011;1066;52.540;13.420;2022-08-03T00:18:18;5.90;;;4.83;;
2119;SDS011;1066;52.540;13.420;2022-08-03T00:20:43;4.30;;;3.80;;
2119;SDS011;1066;52.540;13.420;2022-08-03T00:23:09;4.43;;;4.03;;
2119;SDS011;1066;52.540;13.420;2022-08-03T00:25:34;4.50;;;4.10;;
2119;SDS011;1066;52.540;13.420;2022-08-03T00:28:00;4.83;;;4.37;;
2119;SDS011;1066;52.540;13.420;2022-08-03T00:30:27;4.50;;;4.17;;
2119;SDS011;1066;52.540;13.420;2022-08-03T00:32:52;5.07;;;3.90;;
2119;SDS011;1066;52.540;13.420;2022-08-03T00:35:18;5.67;;;4.93;;
2119;SDS011;1066;52.540;13.420;2022-08-03T00:37:43;4.70;;;4.30;;
2119;SDS011;1066;52.540;13.420;2022-08-03T00:40:10;4.63;;;4.10;;
2119;SDS011;1066;52.540;13.420;2022-08-03T00:42:50;5.40;;;3.87;;
2119;SDS011;1066;52.540;13.420;2022-08-03T00:45:17;4.57;;;3.83;;
2119;SDS011;1066;52.540;13.420;2022-08-03T00:47:47;4.57;;;3.87;;
2119;SDS011;1066;52.540;13.420;2022-08-03T00:50:12;4.87;;;4.47;;
2119;SDS011;1066;52.540;13.420;2022-08-03T00:52:38;4.70;;;3.73;;
2119;SDS011;1066;52.540;13.420;2022-08-03T00:55:04;5.37;;;4.80;;
2119;SDS011;1066;52.540;13.420;2022-08-03T00:57:30;4.40;;;4.00;;
2119;SDS011;1066;52.540;13.420;2022-08-03T00:59:56;5.03;;;4.60;;
2119;SDS011;1066;52.540;13.420;2022-08-03T01:02:24;5.30;;;4.33;;
2119;SDS011;1066;52.540;13.420;2022-08-03T01:04:50;6.33;;;4.33;;
2119;SDS011;1066;52.540;13.420;2022-08-03T01:08:19;4.87;;;4.37;;
2119;SDS011;1066;52.540;13.420;2022-08-03T01:10:27;4.93;;;4.43;;
2119;SDS011;1066;52.540;13.420;2022-08-03T01:18:10;4.63;;;4.10;;
2119;SDS011;1066;52.540;13.420;2022-08-03T01:20:39;4.53;;;4.23;;
2119;SDS011;1066;52.540;13.420;2022-08-03T01:23:09;6.40;;;4.20;;
2119;SDS011;1066;52.540;13.420;2022-08-03T01:31:10;6.40;;;4.47;;
2119;SDS011;1066;52.540;13.420;2022-08-03T01:33:48;4.43;;;3.57;;
2119;SDS011;1066;52.540;13.420;2022-08-03T01:36:22;5.57;;;4.17;;
2119;SDS011;1066;52.540;13.420;2022-08-03T01:38:57;4.47;;;4.07;;
2119;SDS011;1066;52.540;13.420;2022-08-03T01:41:28;4.43;;;3.47;;
2119;SDS011;1066;52.540;13.420;2022-08-03T01:43:55;4.90;;;4.33;;
2119;SDS011;1066;52.540;13.420;2022-08-03T01:46:22;4.23;;;3.80;;
2119;SDS011;1066;52.540;13.420;2022-08-03T01:48:49;4.43;;;4.03;;
2119;SDS011;1066;52.540;13.420;2022-08-03T01:51:15;10.17;;;4.10;;
2119;SDS011;1066;52.540;13.420;2022-08-03T01:53:43;5.30;;;3.90;;
2119;SDS011;1066;52.540;13.420;2022-08-03T01:56:09;4.97;;;4.57;;
2119;SDS011;1066;52.540;13.420;2022-08-03T01:58:34;4.70;;;4.30;;
2119;SDS011;1066;52.540;13.420;2022-08-03T02:01:01;4.37;;;4.00;;
2119;SDS011;1066;52.540;13.420;2022-08-03T02:03:27;4.33;;;3.93;;
2119;SDS011;1066;52.540;13.420;2022-08-03T02:05:53;5.33;;;4.00;;
2119;SDS011;1066;52.540;13.420;2022-08-03T02:08:20;4.10;;;3.70;;
2119;SDS011;1066;52.540;13.420;2022-08-03T02:10:48;3.80;;;3.50;;
2119;SDS011;1066;52.540;13.420;2022-08-03T02:13:14;4.20;;;3.80;;
2119;SDS011;1066;52.540;13.420;2022-08-03T02:15:40;4.93;;;4.00;;
2119;SDS011;1066;52.540;13.420;2022-08-03T02:18:06;3.60;;;3.30;;
2119;SDS011;1066;52.540;13.420;2022-08-03T02:20:33;5.73;;;3.67;;
2119;SDS011;1066;52.540;13.420;2022-08-03T02:23:01;5.40;;;3.90;;
2119;SDS011;1066;52.540;13.420;2022-08-03T02:25:26;4.40;;;4.00;;
2119;SDS011;1066;52.540;13.420;2022-08-03T02:28:00;4.53;;;3.67;;
2119;SDS011;1066;52.540;13.420;2022-08-03T02:30:35;5.67;;;4.47;;
2119;SDS011;1066;52.540;13.420;2022-08-03T02:33:02;5.00;;;4.43;;
2119;SDS011;1066;52.540;13.420;2022-08-03T02:35:29;5.90;;;4.00;;
2119;SDS011;1066;52.540;13.420;2022-08-03T02:37:56;5.07;;;4.47;;
2119;SDS011;1066;52.540;13.420;2022-08-03T02:40:23;4.90;;;4.40;;
2119;SDS011;1066;52.540;13.420;2022-08-03T02:42:52;6.03;;;4.70;;
2119;SDS011;1066;52.540;13.420;2022-08-03T02:45:20;4.97;;;4.43;;
2119;SDS011;1066;52.540;13.420;2022-08-03T02:47:48;5.23;;;4.13;;
2119;SDS011;1066;52.540;13.420;2022-08-03T02:50:17;4.80;;;4.40;;
2119;SDS011;1066;52.540;13.420;2022-08-03T02:52:43;5.33;;;4.10;;
2119;SDS011;1066;52.540;13.420;2022-08-03T02:55:09;5.67;;;4.57;;
2119;SDS011;1066;52.540;13.420;2022-08-03T02:57:35;5.97;;;4.10;;
2119;SDS011;1066;52.540;13.420;2022-08-03T03:00:01;7.30;;;4.10;;
2119;SDS011;1066;52.540;13.420;2022-08-03T03:02:27;4.40;;;4.00;;
2119;SDS011;1066;52.540;13.420;2022-08-03T03:04:54;4.70;;;4.30;;
2119;SDS011;1066;52.540;13.420;2022-08-03T03:07:19;3.90;;;3.60;;
2119;SDS011;1066;52.540;13.420;2022-08-03T03:09:45;5.60;;;4.33;;
2119;SDS011;1066;52.540;13.420;2022-08-03T03:12:11;4.57;;;4.17;;
2119;SDS011;1066;52.540;13.420;2022-08-03T03:14:37;4.47;;;4.00;;
2119;SDS011;1066;52.540;13.420;2022-08-03T03:17:03;4.30;;;4.00;;
2119;SDS011;1066;52.540;13.420;2022-08-03T03:19:31;4.27;;;3.97;;
2119;SDS011;1066;52.540;13.420;2022-08-03T03:21:57;4.67;;;4.07;;
2119;SDS011;1066;52.540;13.420;2022-08-03T03:24:27;5.20;;;4.70;;
2119;SDS011;1066;52.540;13.420;2022-08-03T03:26:53;4.43;;;4.03;;
2119;SDS011;1066;52.540;13.420;2022-08-03T03:29:19;3.67;;;3.33;;
2119;SDS011;1066;52.540;13.420;2022-08-03T03:31:45;4.90;;;4.03;;
2119;SDS011;1066;52.540;13.420;2022-08-03T03:34:11;6.00;;;4.40;;
2119;SDS011;1066;52.540;13.420;2022-08-03T03:36:36;4.20;;;3.90;;
2119;SDS011;1066;52.540;13.420;2022-08-03T03:39:01;4.77;;;4.40;;
2119;SDS011;1066;52.540;13.420;2022-08-03T03:41:27;4.87;;;4.47;;
2119;SDS011;1066;52.540;13.420;2022-08-03T03:43:53;4.33;;;4.00;;
2119;SDS011;1066;52.540;13.420;2022-08-03T03:46:18;4.83;;;4.27;;
2119;SDS011;1066;52.540;13.420;2022-08-03T03:48:44;4.60;;;3.77;;
2119;SDS011;1066;52.540;13.420;2022-08-03T03:51:09;6.40;;;4.27;;
2119;SDS011;1066;52.540;13.420;2022-08-03T03:53:35;4.53;;;4.10;;
2119;SDS011;1066;52.540;13.420;2022-08-03T03:56:00;4.53;;;4.13;;
2119;SDS011;1066;52.540;13.420;2022-08-03T03:58:26;4.43;;;4.13;;
2119;SDS011;1066;52.540;13.420;2022-08-03T04:00:51;7.77;;;4.00;;
2119;SDS011;1066;52.540;13.420;2022-08-03T04:03:17;4.67;;;4.27;;
2119;SDS011;1066;52.540;13.420;2022-08-03T04:05:43;5.00;;;4.50;;
2119;SDS011;1066;52.540;13.420;2022-08-03T04:08:27;4.60;;;4.20;;
2119;SDS011;1066;52.540;13.420;2022-08-03T04:11:25;4.43;;;4.03;;
2119;SDS011;1066;52.540;13.420;2022-08-03T04:13:54;4.53;;;3.87;;
2119;SDS011;1066;52.540;13.420;2022-08-03T04:16:22;4.10;;;3.70;;
2119;SDS011;1066;52.540;13.420;2022-08-03T04:18:51;5.30;;;4.90;;
2119;SDS011;1066;52.540;13.420;2022-08-03T04:21:20;4.80;;;4.40;;
2119;SDS011;1066;52.540;13.420;2022-08-03T04:23:47;5.50;;;3.73;;
2119;SDS011;1066;52.540;13.420;2022-08-03T04:26:15;5.03;;;4.07;;
2119;SDS011;1066;52.540;13.420;2022-08-03T04:28:43;4.50;;;4.10;;
2119;SDS011;1066;52.540;13.420;2022-08-03T04:31:11;4.50;;;4.03;;
2119;SDS011;1066;52.540;13.420;2022-08-03T04:33:37;6.47;;;4.70;;
2119;SDS011;1066;52.540;13.420;2022-08-03T04:36:04;4.43;;;3.93;;
2119;SDS011;1066;52.540;13.420;2022-08-03T04:38:31;4.43;;;4.03;;
2119;SDS011;1066;52.540;13.420;2022-08-03T04:41:03;5.50;;;4.63;;
2119;SDS011;1066;52.540;13.420;2022-08-03T04:43:29;4.30;;;4.00;;
2119;SDS011;1066;52.540;13.420;2022-08-03T04:45:57;4.90;;;4.40;;
2119;SDS011;1066;52.540;13.420;2022-08-03T04:48:23;4.80;;;4.40;;
2119;SDS011;1066;52.540;13.420;2022-08-03T04:50:48;4.87;;;4.40;;
2119;SDS011;1066;52.540;13.420;2022-08-03T04:53:14;4.50;;;4.10;;
2119;SDS011;1066;52.540;13.420;2022-08-03T04:55:40;5.03;;;4.60;;
2119;SDS011;1066;52.540;13.420;2022-08-03T04:58:06;8.93;;;8.03;;
2119;SDS011;1066;52.540;13.420;2022-08-03T05:00:31;9.07;;;5.73;;
2119;SDS011;1066;52.540;13.420;2022-08-03T05:02:56;5.90;;;5.30;;
2119;SDS011;1066;52.540;13.420;2022-08-03T05:05:22;9.80;;;6.70;;
2119;SDS011;1066;52.540;13.420;2022-08-03T05:07:47;6.13;;;5.40;;
2119;SDS011;1066;52.540;13.420;2022-08-03T05:10:15;5.93;;;5.33;;
2119;SDS011;1066;52.540;13.420;2022-08-03T05:12:41;7.57;;;6.83;;
2119;SDS011;1066;52.540;13.420;2022-08-03T05:15:07;8.43;;;5.63;;
2119;SDS011;1066;52.540;13.420;2022-08-03T05:17:33;9.60;;;5.83;;
2119;SDS011;1066;52.540;13.420;2022-08-03T05:19:59;5.90;;;5.30;;
2119;SDS011;1066;52.540;13.420;2022-08-03T05:22:24;5.63;;;5.03;;
2119;SDS011;1066;52.540;13.420;2022-08-03T05:24:50;5.83;;;5.33;;
2119;SDS011;1066;52.540;13.420;2022-08-03T05:27:15;5.70;;;5.10;;
2119;SDS011;1066;52.540;13.420;2022-08-03T05:29:47;6.23;;;4.90;;
2119;SDS011;1066;52.540;13.420;2022-08-03T05:32:14;6.53;;;5.60;;
2119;SDS011;1066;52.540;13.420;2022-08-03T05:34:40;9.10;;;5.23;;
2119;SDS011;1066;52.540;13.420;2022-08-03T05:37:05;6.00;;;5.03;;
2119;SDS011;1066;52.540;13.420;2022-08-03T05:39:31;4.57;;;4.10;;
2119;SDS011;1066;52.540;13.420;2022-08-03T05:41:57;6.40;;;4.80;;
2119;SDS011;1066;52.540;13.420;2022-08-03T05:44:22;8.87;;;7.97;;
2119;SDS011;1066;52.540;13.420;2022-08-03T05:46:49;11.47;;;9.53;;
2119;SDS011;1066;52.540;13.420;2022-08-03T05:49:15;6.20;;;5.80;;
2119;SDS011;1066;52.540;13.420;2022-08-03T05:51:40;7.27;;;6.50;;
2119;SDS011;1066;52.540;13.420;2022-08-03T05:54:05;6.00;;;5.50;;
2119;SDS011;1066;52.540;13.420;2022-08-03T05:56:31;9.37;;;5.77;;
2119;SDS011;1066;52.540;13.420;2022-08-03T05:58:56;5.43;;;4.20;;
2119;SDS011;1066;52.540;13.420;2022-08-03T06:01:21;6.73;;;5.67;;
2119;SDS011;1066;52.540;13.420;2022-08-03T06:03:47;7.80;;;5.57;;
2119;SDS011;1066;52.540;13.420;2022-08-03T06:06:13;10.67;;;7.30;;
2119;SDS011;1066;52.540;13.420;2022-08-03T06:08:40;9.70;;;8.80;;
2119;SDS011;1066;52.540;13.420;2022-08-03T06:11:06;6.77;;;5.80;;
2119;SDS011;1066;52.540;13.420;2022-08-03T06:13:32;7.90;;;6.47;;
2119;SDS011;1066;52.540;13.420;2022-08-03T06:15:57;7.60;;;5.70;;
2119;SDS011;1066;52.540;13.420;2022-08-03T06:18:23;7.90;;;6.80;;
2119;SDS011;1066;52.540;13.420;2022-08-03T06:20:48;10.13;;;6.07;;
2119;SDS011;1066;52.540;13.420;2022-08-03T06:23:14;8.30;;;7.50;;
2119;SDS011;1066;52.540;13.420;2022-08-03T06:25:40;7.30;;;6.20;;
2119;SDS011;1066;52.540;13.420;2022-08-03T06:28:09;6.10;;;5.00;;
2119;SDS011;1066;52.540;13.420;2022-08-03T06:30:34;7.40;;;6.13;;
2119;SDS011;1066;52.540;13.420;2022-08-03T06:33:00;9.77;;;6.57;;
2119;SDS011;1066;52.540;13.420;2022-08-03T06:35:25;7.03;;;6.13;;
2119;SDS011;1066;52.540;13.420;2022-08-03T06:37:52;6.13;;;5.60;;
2119;SDS011;1066;52.540;13.420;2022-08-03T06:40:18;6.17;;;5.57;;
2119;SDS011;1066;52.540;13.420;2022-08-03T06:42:54;7.00;;;6.30;;
2119;SDS011;1066;52.540;13.420;2022-08-03T06:45:20;7.80;;;5.77;;
2119;SDS011;1066;52.540;13.420;2022-08-03T06:47:45;6.87;;;6.00;;
2119;SDS011;1066;52.540;13.420;2022-08-03T06:50:10;5.53;;;4.77;;
2119;SDS011;1066;52.540;13.420;2022-08-03T06:52:36;6.90;;;4.80;;
2119;SDS011;1066;52.540;13.420;2022-08-03T06:55:02;6.23;;;4.23;;
2119;SDS011;1066;52.540;13.420;2022-08-03T06:57:27;7.07;;;5.30;;
2119;SDS011;1066;52.540;13.420;2022-08-03T06:59:53;7.67;;;5.60;;
2119;SDS011;1066;52.540;13.420;2022-08-03T07:02:20;10.77;;;7.67;;
2119;SDS011;1066;52.540;13.420;2022-08-03T07:04:46;5.77;;;5.23;;
2119;SDS011;1066;52.540;13.420;2022-08-03T07:07:12;4.93;;;4.10;;
2119;SDS011;1066;52.540;13.420;2022-08-03T07:09:38;4.93;;;4.00;;
2119;SDS011;1066;52.540;13.420;2022-08-03T07:12:03;9.33;;;7.03;;
2119;SDS011;1066;52.540;13.420;2022-08-03T07:14:30;7.20;;;3.90;;
2119;SDS011;1066;52.540;13.420;2022-08-03T07:16:56;7.40;;;3.50;;
2119;SDS011;1066;52.540;13.420;2022-08-03T07:19:21;4.83;;;4.33;;
2119;SDS011;1066;52.540;13.420;2022-08-03T07:21:46;3.97;;;3.47;;
2119;SDS011;1066;52.540;13.420;2022-08-03T07:24:12;6.37;;;3.47;;
2119;SDS011;1066;52.540;13.420;2022-08-03T07:26:37;7.17;;;3.93;;
2119;SDS011;1066;52.540;13.420;2022-08-03T07:29:02;4.30;;;3.03;;
2119;SDS011;1066;52.540;13.420;2022-08-03T07:31:28;3.40;;;3.10;;
2119;SDS011;1066;52.540;13.420;2022-08-03T07:33:53;6.90;;;4.37;;
2119;SDS011;1066;52.540;13.420;2022-08-03T07:36:18;5.47;;;3.97;;
2119;SDS011;1066;52.540;13.420;2022-08-03T07:38:44;5.73;;;4.47;;
2119;SDS011;1066;52.540;13.420;2022-08-03T07:41:09;7.90;;;5.50;;
2119;SDS011;1066;52.540;13.420;2022-08-03T07:43:35;7.73;;;4.77;;
2119;SDS011;1066;52.540;13.420;2022-08-03T07:46:00;8.77;;;6.80;;
2119;SDS011;1066;52.540;13.420;2022-08-03T07:48:26;6.80;;;4.80;;
2119;SDS011;1066;52.540;13.420;2022-08-03T07:50:51;5.30;;;3.90;;
2119;SDS011;1066;52.540;13.420;2022-08-03T07:53:16;3.63;;;3.27;;
2119;SDS011;1066;52.540;13.420;2022-08-03T07:55:42;5.80;;;3.10;;
2119;SDS011;1066;52.540;13.420;2022-08-03T07:58:09;4.20;;;3.80;;
2119;SDS011;1066;52.540;13.420;2022-08-03T08:00:42;3.20;;;2.53;;
2119;SDS011;1066;52.540;13.420;2022-08-03T08:03:08;3.03;;;2.83;;
2119;SDS011;1066;52.540;13.420;2022-08-03T08:05:34;4.50;;;3.80;;
2119;SDS011;1066;52.540;13.420;2022-08-03T08:08:00;3.77;;;3.47;;
2119;SDS011;1066;52.540;13.420;2022-08-03T08:10:25;6.27;;;3.60;;
2119;SDS011;1066;52.540;13.420;2022-08-03T08:12:51;4.80;;;3.20;;
2119;SDS011;1066;52.540;13.420;2022-08-03T08:15:17;5.23;;;2.67;;
2119;SDS011;1066;52.540;13.420;2022-08-03T08:17:43;3.90;;;2.53;;
2119;SDS011;1066;52.540;13.420;2022-08-03T08:20:11;3.77;;;2.80;;
2119;SDS011;1066;52.540;13.420;2022-08-03T08:22:40;5.47;;;4.40;;
2119;SDS011;1066;52.540;13.420;2022-08-03T08:25:05;5.33;;;4.77;;
2119;SDS011;1066;52.540;13.420;2022-08-03T08:27:31;2.93;;;2.60;;
2119;SDS011;1066;52.540;13.420;2022-08-03T08:29:56;6.67;;;4.87;;
2119;SDS011;1066;52.540;13.420;2022-08-03T08:32:21;3.30;;;3.00;;
2119;SDS011;1066;52.540;13.420;2022-08-03T08:34:47;5.53;;;3.53;;
2119;SDS011;1066;52.540;13.420;2022-08-03T08:37:12;2.83;;;2.30;;
2119;SDS011;1066;52.540;13.420;2022-08-03T08:39:38;4.37;;;3.17;;
2119;SDS011;1066;52.540;13.420;2022-08-03T08:42:03;5.73;;;3.13;;
2119;SDS011;1066;52.540;13.420;2022-08-03T08:44:28;4.03;;;3.63;;
2119;SDS011;1066;52.540;13.420;2022-08-03T08:46:54;4.70;;;3.60;;
2119;SDS011;1066;52.540;13.420;2022-08-03T08:49:22;3.87;;;3.30;;
2119;SDS011;1066;52.540;13.420;2022-08-03T08:51:50;5.50;;;2.90;;
2119;SDS011;1066;52.540;13.420;2022-08-03T08:54:17;3.77;;;2.80;;
2119;SDS011;1066;52.540;13.420;2022-08-03T08:56:46;4.30;;;3.90;;
2119;SDS011;1066;52.540;13.420;2022-08-03T08:59:13;5.30;;;4.37;;
2119;SDS011;1066;52.540;13.420;2022-08-03T09:01:38;3.57;;;3.20;;
2119;SDS011;1066;52.540;13.420;2022-08-03T09:04:07;3.43;;;2.90;;
2119;SDS011;1066;52.540;13.420;2022-08-03T09:06:33;4.57;;;3.70;;
2119;SDS011;1066;52.540;13.420;2022-08-03T09:08:59;3.93;;;3.30;;
2119;SDS011;1066;52.540;13.420;2022-08-03T09:11:24;3.47;;;3.17;;
2119;SDS011;1066;52.540;13.420;2022-08-03T09:13:49;7.37;;;3.70;;
2119;SDS011;1066;52.540;13.420;2022-08-03T09:16:19;5.80;;;2.77;;
2119;SDS011;1066;52.540;13.420;2022-08-03T09:18:47;5.70;;;3.60;;
2119;SDS011;1066;52.540;13.420;2022-08-03T09:21:20;3.97;;;3.33;;
2119;SDS011;1066;52.540;13.420;2022-08-03T09:23:57;6.60;;;4.13;;
2119;SDS011;1066;52.540;13.420;2022-08-03T09:26:24;4.07;;;3.23;;
2119;SDS011;1066;52.540;13.420;2022-08-03T09:28:58;4.43;;;2.93;;
2119;SDS011;1066;52.540;13.420;2022-08-03T09:31:28;5.07;;;3.90;;
2119;SDS011;1066;52.540;13.420;2022-08-03T09:33:59;5.67;;;4.80;;
2119;SDS011;1066;52.540;13.420;2022-08-03T09:36:32;3.70;;;3.40;;
2119;SDS011;1066;52.540;13.420;2022-08-03T09:39:06;4.33;;;3.83;;
2119;SDS011;1066;52.540;13.420;2022-08-03T09:41:35;3.07;;;2.60;;
2119;SDS011;1066;52.540;13.420;2022-08-03T09:44:02;3.00;;;2.80;;
2119;SDS011;1066;52.540;13.420;2022-08-03T09:46:27;4.30;;;3.10;;
2119;SDS011;1066;52.540;13.420;2022-08-03T09:49:07;5.90;;;3.27;;
2119;SDS011;1066;52.540;13.420;2022-08-03T09:51:34;3.80;;;3.50;;
2119;SDS011;1066;52.540;13.420;2022-08-03T09:54:00;4.73;;;2.97;;
2119;SDS011;1066;52.540;13.420;2022-08-03T09:56:43;3.50;;;3.20;;
2119;SDS011;1066;52.540;13.420;2022-08-03T09:59:11;3.30;;;2.60;;
2119;SDS011;1066;52.540;13.420;2022-08-03T10:01:37;3.53;;;2.70;;
2119;SDS011;1066;52.540;13.420;2022-08-03T10:04:05;2.83;;;2.63;;
2119;SDS011;1066;52.540;13.420;2022-08-03T10:06:36;4.17;;;2.60;;
2119;SDS011;1066;52.540;13.420;2022-08-03T10:09:06;2.87;;;2.53;;
2119;SDS011;1066;52.540;13.420;2022-08-03T10:11:33;3.87;;;2.67;;
2119;SDS011;1066;52.540;13.420;2022-08-03T10:14:02;3.80;;;3.37;;
2119;SDS011;1066;52.540;13.420;2022-08-03T10:16:31;3.43;;;2.83;;
2119;SDS011;1066;52.540;13.420;2022-08-03T10:18:58;3.50;;;3.20;;
2119;SDS011;1066;52.540;13.420;2022-08-03T10:21:23;3.37;;;3.00;;
2119;SDS011;1066;52.540;13.420;2022-08-03T10:23:50;3.90;;;3.20;;
2119;SDS011;1066;52.540;13.420;2022-08-03T10:26:20;5.00;;;2.73;;
2119;SDS011;1066;52.540;13.420;2022-08-03T10:28:48;3.80;;;3.20;;
2119;SDS011;1066;52.540;13.420;2022-08-03T10:31:14;2.70;;;2.50;;
2119;SDS011;1066;52.540;13.420;2022-08-03T10:33:43;3.63;;;3.33;;
2119;SDS011;1066;52.540;13.420;2022-08-03T10:36:12;3.40;;;3.10;;
2119;SDS011;1066;52.540;13.420;2022-08-03T10:38:43;2.67;;;2.47;;
2119;SDS011;1066;52.540;13.420;2022-08-03T10:41:12;2.70;;;2.50;;
2119;SDS011;1066;52.540;13.420;2022-08-03T10:46:45;2.33;;;2.13;;
2119;SDS011;1066;52.540;13.420;2022-08-03T10:49:13;3.17;;;2.87;;
2119;SDS011;1066;52.540;13.420;2022-08-03T10:51:39;3.80;;;2.80;;
2119;SDS011;1066;52.540;13.420;2022-08-03T10:54:05;3.90;;;2.97;;
2119;SDS011;1066;52.540;13.420;2022-08-03T10:59:14;4.13;;;3.10;;
2119;SDS011;1066;52.540;13.420;2022-08-03T11:04:16;4.00;;;3.43;;
2119;SDS011;1066;52.540;13.420;2022-08-03T11:06:43;3.87;;;3.57;;
2119;SDS011;1066;52.540;13.420;2022-08-03T11:11:34;7.40;;;4.10;;
2119;SDS011;1066;52.540;13.420;2022-08-03T11:14:04;5.30;;;4.20;;
2119;SDS011;1066;52.540;13.420;2022-08-03T11:16:36;8.57;;;4.20;;
2119;SDS011;1066;52.540;13.420;2022-08-03T11:19:04;3.40;;;3.10;;
2119;SDS011;1066;52.540;13.420;2022-08-03T11:29:53;3.17;;;2.87;;
2119;SDS011;1066;52.540;13.420;2022-08-03T11:38:09;4.17;;;3.17;;
2119;SDS011;1066;52.540;13.420;2022-08-03T11:40:45;3.60;;;3.30;;
2119;SDS011;1066;52.540;13.420;2022-08-03T11:48:41;4.77;;;3.30;;
2119;SDS011;1066;52.540;13.420;2022-08-03T11:51:24;4.53;;;3.57;;
2119;SDS011;1066;52.540;13.420;2022-08-03T11:53:54;9.23;;;3.60;;
2119;SDS011;1066;52.540;13.420;2022-08-03T11:56:22;3.80;;;3.30;;
2119;SDS011;1066;52.540;13.420;2022-08-03T11:58:49;5.20;;;3.60;;
2119;SDS011;1066;52.540;13.420;2022-08-03T12:01:17;5.40;;;3.50;;
2119;SDS011;1066;52.540;13.420;2022-08-03T12:03:43;4.00;;;3.10;;
2119;SDS011;1066;52.540;13.420;2022-08-03T12:06:10;3.45;;;3.15;;
2119;SDS011;1066;52.540;13.420;2022-08-03T12:08:36;5.05;;;3.33;;
2119;SDS011;1066;52.540;13.420;2022-08-03T12:11:02;3.50;;;3.20;;
2119;SDS011;1066;52.540;13.420;2022-08-03T12:16:02;3.63;;;2.45;;
2119;SDS011;1066;52.540;13.420;2022-08-03T12:18:27;3.40;;;3.17;;
2119;SDS011;1066;52.540;13.420;2022-08-03T12:21:02;3.72;;;1.92;;
2119;SDS011;1066;52.540;13.420;2022-08-03T12:23:28;2.42;;;2.15;;
2119;SDS011;1066;52.540;13.420;2022-08-03T12:25:59;3.08;;;2.72;;
2119;SDS011;1066;52.540;13.420;2022-08-03T12:28:31;4.88;;;2.40;;
2119;SDS011;1066;52.540;13.420;2022-08-03T12:30:59;3.40;;;2.15;;
2119;SDS011;1066;52.540;13.420;2022-08-03T12:36:22;4.70;;;2.92;;
2119;SDS011;1066;52.540;13.420;2022-08-03T12:38:53;4.22;;;2.40;;
2119;SDS011;1066;52.540;13.420;2022-08-03T12:41:26;2.53;;;2.33;;
2119;SDS011;1066;52.540;13.420;2022-08-03T12:43:52;3.30;;;2.60;;
2119;SDS011;1066;52.540;13.420;2022-08-03T12:46:19;4.00;;;2.17;;
2119;SDS011;1066;52.540;13.420;2022-08-03T12:49:06;5.43;;;2.70;;
2119;SDS011;1066;52.540;13.420;2022-08-03T12:54:07;3.72;;;2.30;;
2119;SDS011;1066;52.540;13.420;2022-08-03T12:56:33;3.35;;;2.67;;
2119;SDS011;1066;52.540;13.420;2022-08-03T12:58:59;2.45;;;2.08;;
2119;SDS011;1066;52.540;13.420;2022-08-03T13:01:25;2.45;;;2.22;;
2119;SDS011;1066;52.540;13.420;2022-08-03T13:03:51;2.85;;;2.10;;
2119;SDS011;1066;52.540;13.420;2022-08-03T13:06:24;2.50;;;2.30;;
2119;SDS011;1066;52.540;13.420;2022-08-03T13:09:11;1.92;;;1.83;;
2119;SDS011;1066;52.540;13.420;2022-08-03T13:11:35;2.95;;;2.75;;
2119;SDS011;1066;52.540;13.420;2022-08-03T13:14:01;5.40;;;2.53;;
2119;SDS011;1066;52.540;13.420;2022-08-03T13:16:26;3.33;;;2.53;;
2119;SDS011;1066;52.540;13.420;2022-08-03T13:18:52;2.00;;;1.77;;
2119;SDS011;1066;52.540;13.420;2022-08-03T13:21:18;3.00;;;2.45;;
2119;SDS011;1066;52.540;13.420;2022-08-03T13:23:45;4.30;;;2.67;;
2119;SDS011;1066;52.540;13.420;2022-08-03T13:26:10;2.97;;;2.78;;
2119;SDS011;1066;52.540;13.420;2022-08-03T13:28:36;3.72;;;2.40;;
2119;SDS011;1066;52.540;13.420;2022-08-03T13:31:02;3.47;;;3.17;;
2119;SDS011;1066;52.540;13.420;2022-08-03T13:33:28;3.03;;;2.72;;
2119;SDS011;1066;52.540;13.420;2022-08-03T13:35:53;2.85;;;2.65;;
2119;SDS011;1066;52.540;13.420;2022-08-03T13:38:19;2.75;;;2.55;;
2119;SDS011;1066;52.540;13.420;2022-08-03T13:40:44;2.22;;;2.10;;
2119;SDS011;1066;52.540;13.420;2022-08-03T13:43:09;2.30;;;1.88;;
2119;SDS011;1066;52.540;13.420;2022-08-03T13:45:35;2.30;;;2.20;;
2119;SDS011;1066;52.540;13.420;2022-08-03T13:48:00;2.25;;;1.80;;
2119;SDS011;1066;52.540;13.420;2022-08-03T13:50:26;4.18;;;2.40;;
2119;SDS011;1066;52.540;13.420;2022-08-03T13:52:51;3.28;;;2.13;;
2119;SDS011;1066;52.540;13.420;2022-08-03T13:55:17;2.72;;;2.10;;
2119;SDS011;1066;52.540;13.420;2022-08-03T13:57:42;2.33;;;2.13;;
2119;SDS011;1066;52.540;13.420;2022-08-03T14:00:07;3.50;;;2.58;;
2119;SDS011;1066;52.540;13.420;2022-08-03T14:02:33;2.50;;;2.00;;
2119;SDS011;1066;52.540;13.420;2022-08-03T14:04:59;3.78;;;2.47;;
2119;SDS011;1066;52.540;13.420;2022-08-03T14:07:24;3.67;;;2.05;;
2119;SDS011;1066;52.540;13.420;2022-08-03T14:09:49;2.30;;;2.10;;
2119;SDS011;1066;52.540;13.420;2022-08-03T14:12:15;2.57;;;2.37;;
2119;SDS011;1066;52.540;13.420;2022-08-03T14:14:40;3.03;;;2.70;;
2119;SDS011;1066;52.540;13.420;2022-08-03T14:17:05;3.50;;;2.80;;
2119;SDS011;1066;52.540;13.420;2022-08-03T14:19:31;3.80;;;3.10;;
2119;SDS011;1066;52.540;13.420;2022-08-03T14:21:57;6.20;;;2.73;;
2119;SDS011;1066;52.540;13.420;2022-08-03T14:24:22;4.03;;;2.57;;
2119;SDS011;1066;52.540;13.420;2022-08-03T14:26:48;2.47;;;2.20;;
2119;SDS011;1066;52.540;13.420;2022-08-03T14:29:13;3.03;;;2.73;;
2119;SDS011;1066;52.540;13.420;2022-08-03T14:31:38;4.13;;;3.10;;
2119;SDS011;1066;52.540;13.420;2022-08-03T14:34:04;3.37;;;3.10;;
2119;SDS011;1066;52.540;13.420;2022-08-03T14:36:29;3.00;;;2.70;;
2119;SDS011;1066;52.540;13.420;2022-08-03T14:38:55;3.40;;;2.70;;
2119;SDS011;1066;52.540;13.420;2022-08-03T14:41:20;3.30;;;2.83;;
2119;SDS011;1066;52.540;13.420;2022-08-03T14:43:46;2.80;;;2.60;;
2119;SDS011;1066;52.540;13.420;2022-08-03T14:46:12;2.80;;;2.60;;
2119;SDS011;1066;52.540;13.420;2022-08-03T14:48:37;3.40;;;2.97;;
2119;SDS011;1066;52.540;13.420;2022-08-03T14:51:03;3.20;;;2.90;;
2119;SDS011;1066;52.540;13.420;2022-08-03T14:53:29;3.80;;;3.43;;
2119;SDS011;1066;52.540;13.420;2022-08-03T14:55:54;4.30;;;3.93;;
2119;SDS011;1066;52.540;13.420;2022-08-03T14:58:23;3.37;;;3.07;;
2119;SDS011;1066;52.540;13.420;2022-08-03T15:00:52;4.27;;;3.97;;
2119;SDS011;1066;52.540;13.420;2022-08-03T15:03:19;5.07;;;3.37;;
2119;SDS011;1066;52.540;13.420;2022-08-03T15:05:47;3.60;;;3.30;;
2119;SDS011;1066;52.540;13.420;2022-08-03T15:08:13;2.83;;;2.57;;
2119;SDS011;1066;52.540;13.420;2022-08-03T15:10:38;3.77;;;3.47;;
2119;SDS011;1066;52.540;13.420;2022-08-03T15:13:03;4.50;;;3.00;;
2119;SDS011;1066;52.540;13.420;2022-08-03T15:15:29;3.10;;;2.90;;
2119;SDS011;1066;52.540;13.420;2022-08-03T15:17:54;3.67;;;3.37;;
2119;SDS011;1066;52.540;13.420;2022-08-03T15:20:20;3.03;;;2.83;;
2119;SDS011;1066;52.540;13.420;2022-08-03T15:22:45;3.30;;;2.93;;
2119;SDS011;1066;52.540;13.420;2022-08-03T15:25:10;3.57;;;3.33;;
2119;SDS011;1066;52.540;13.420;2022-08-03T15:27:37;4.83;;;2.93;;
2119;SDS011;1066;52.540;13.420;2022-08-03T15:30:02;3.43;;;3.20;;
2119;SDS011;1066;52.540;13.420;2022-08-03T15:32:30;3.53;;;3.23;;
2119;SDS011;1066;52.540;13.420;2022-08-03T15:34:59;3.30;;;3.00;;
2119;SDS011;1066;52.540;13.420;2022-08-03T15:37:25;4.47;;;4.07;;
2119;SDS011;1066;52.540;13.420;2022-08-03T15:39:50;3.77;;;3.47;;
2119;SDS011;1066;52.540;13.420;2022-08-03T15:42:16;4.20;;;3.90;;
2119;SDS011;1066;52.540;13.420;2022-08-03T15:44:41;3.70;;;3.40;;
2119;SDS011;1066;52.540;13.420;2022-08-03T15:47:06;4.00;;;3.70;;
2119;SDS011;1066;52.540;13.420;2022-08-03T15:49:32;3.37;;;3.10;;